Terminal Aerodrome Forecast
Issued by NWS

Home | Current Version | Previous Version | Graphics & Text | Print | Product List | Glossary On
Versions: 1 2 3 4 5 6 7 8 9 10 11 12 13 14 15 16 17 18 19 20 21 22 23 24 25 26 27 28
351
FTUS43 KLOT 271136
TAFMDW
TAF
KMDW 271136Z 2712/2812 14007KT 5SM -SHRA VCTS FEW008 SCT025
      BKN060CB
      TEMPO 2712/2714 2SM -TSRA BKN025 OVC040CB
     FM271600 16008KT P6SM BKN020 BKN050
     FM271900 22011KT P6SM VCSH SCT030 BKN050
     FM272300 22007KT P6SM SCT040 BKN200
     FM280900 35005KT P6SM SCT015 OVC030=

USA.gov is the U.S. government's official web portal to all federal, state and local government web resources and services.